Terminal Aerodrome Forecast
Issued by NWS

Home | Current Version | Previous Version | Text Only | Print | Product List | Glossary On
Versions: 1 2 3 4 5 6 7 8 9 10 11 12 13 14 15 16 17 18 19 20 21 22 23 24 25 26 27 28 29
295
FTUS41 KRLX 241500 AAC
TAFCKB
TAF AMD
KCKB 241500Z 2415/2512 24003KT P6SM BKN015
     FM241600 25005KT P6SM BKN025
     FM241700 26008KT P6SM BKN050
     FM242300 30005KT P6SM SCT250
     FM250600 34003KT P6SM VCFG SCT010=

USA.gov is the U.S. government's official web portal to all federal, state and local government web resources and services.